createdAt,value
2018-12-08T00:00:58.491Z,0
2018-12-08T00:01:58.475Z,0
2018-12-08T00:02:58.209Z,0
2018-12-08T00:03:58.444Z,0
2018-12-08T00:04:58.437Z,0
2018-12-08T00:05:58.510Z,0
2018-12-08T00:06:58.400Z,0
2018-12-08T00:07:58.394Z,0
2018-12-08T00:08:58.376Z,0
2018-12-08T00:09:58.367Z,0
2018-12-08T00:10:58.447Z,0
2018-12-08T00:11:58.329Z,0
2018-12-08T00:12:58.340Z,0
2018-12-08T00:13:58.305Z,0
2018-12-08T00:14:58.288Z,0
2018-12-08T00:15:57.786Z,0
2018-12-08T00:16:58.009Z,0
2018-12-08T00:17:58.251Z,0
2018-12-08T00:18:58.234Z,0
2018-12-08T00:19:58.218Z,0
2018-12-08T00:20:57.949Z,0
2018-12-08T00:21:58.199Z,0
2018-12-08T00:22:58.252Z,0
2018-12-08T00:23:57.912Z,0
2018-12-08T00:24:57.891Z,0
2018-12-08T00:25:58.125Z,0
2018-12-08T00:26:57.867Z,0
2018-12-08T00:27:57.861Z,0
2018-12-08T00:28:57.835Z,0
2018-12-08T00:29:58.060Z,0
2018-12-08T00:30:58.055Z,0
2018-12-08T00:31:57.785Z,0
2018-12-08T00:32:58.024Z,0
2018-12-08T00:33:58.101Z,0
2018-12-08T00:34:57.743Z,0
2018-12-08T00:35:57.726Z,0
2018-12-08T00:36:57.966Z,0
2018-12-08T00:37:57.939Z,0
2018-12-08T00:38:57.933Z,0
2018-12-08T00:39:57.923Z,0
2018-12-08T00:40:57.651Z,0
2018-12-08T00:41:57.882Z,0
2018-12-08T00:42:57.865Z,0
2018-12-08T00:43:57.611Z,0
2018-12-08T00:44:57.833Z,0
2018-12-08T00:45:57.575Z,0
2018-12-08T00:46:57.815Z,0
2018-12-08T00:47:57.539Z,0
2018-12-08T00:48:57.770Z,0
2018-12-08T00:49:57.747Z,0
2018-12-08T00:50:57.735Z,0
2018-12-08T00:51:57.716Z,0
2018-12-08T00:52:57.203Z,0
2018-12-08T00:53:57.433Z,0
2018-12-08T00:54:57.667Z,0
2018-12-08T00:55:57.653Z,0
2018-12-08T00:56:57.505Z,0
2018-12-08T00:57:57.630Z,0
2018-12-08T00:58:57.609Z,0
2018-12-08T00:59:57.586Z,0
2018-12-08T01:00:57.581Z,0
2018-12-08T01:01:57.556Z,0
2018-12-08T01:02:57.294Z,0
2018-12-08T01:03:57.279Z,0
2018-12-08T01:04:57.514Z,0
2018-12-08T01:05:57.240Z,0
2018-12-08T01:06:57.589Z,0
2018-12-08T01:07:57.461Z,0
2018-12-08T01:08:57.448Z,0
2018-12-08T01:09:57.441Z,0
2018-12-08T01:10:56.917Z,0
2018-12-08T01:11:57.147Z,0
2018-12-08T01:12:57.133Z,0
2018-12-08T01:13:57.116Z,0
2018-12-08T01:14:57.358Z,0
2018-12-08T01:15:57.440Z,0
2018-12-08T01:16:57.375Z,0
2018-12-08T01:17:57.306Z,0
2018-12-08T01:18:57.290Z,0
2018-12-08T01:19:57.267Z,0
2018-12-08T01:20:57.250Z,0
2018-12-08T01:21:56.986Z,0
2018-12-08T01:22:57.228Z,0
2018-12-08T01:23:57.199Z,0
2018-12-08T01:24:56.941Z,0
2018-12-08T01:25:56.926Z,0
2018-12-08T01:26:56.999Z,0
2018-12-08T01:27:57.142Z,0
2018-12-08T01:28:56.874Z,0
2018-12-08T01:29:57.115Z,0
2018-12-08T01:30:57.096Z,0
2018-12-08T01:31:56.829Z,0
2018-12-08T01:32:59.267Z,0
2018-12-08T01:33:56.805Z,0
2018-12-08T01:34:57.030Z,0
2018-12-08T01:35:57.020Z,0
2018-12-08T01:36:56.797Z,0
2018-12-08T01:37:56.792Z,0
2018-12-08T01:38:56.966Z,0
2018-12-08T01:39:56.953Z,0
2018-12-08T01:40:56.936Z,0
2018-12-08T01:41:56.917Z,0
2018-12-08T01:42:56.903Z,0
2018-12-08T01:43:56.639Z,0
2018-12-08T01:44:56.876Z,0
2018-12-08T01:45:56.607Z,0
2018-12-08T01:46:56.692Z,0
2018-12-08T01:47:56.575Z,0
2018-12-08T01:48:56.559Z,0
2018-12-08T01:49:56.542Z,0
2018-12-08T01:50:56.776Z,0
2018-12-08T01:51:56.755Z,0
2018-12-08T01:52:56.742Z,0
2018-12-08T01:53:56.484Z,0
2018-12-08T01:54:56.710Z,0
2018-12-08T01:55:56.697Z,0
2018-12-08T01:56:56.501Z,0
2018-12-08T01:57:56.417Z,0
2018-12-08T01:58:56.399Z,0
2018-12-08T01:59:56.634Z,0
2018-12-08T02:00:56.616Z,0
2018-12-08T02:01:56.352Z,0
2018-12-08T02:02:56.597Z,0
2018-12-08T02:03:57.713Z,0
2018-12-08T02:04:56.559Z,0
2018-12-08T02:05:56.541Z,0
2018-12-08T02:06:56.524Z,0
2018-12-08T02:07:56.256Z,0
2018-12-08T02:08:56.490Z,0
2018-12-08T02:09:56.227Z,0
2018-12-08T02:10:56.220Z,0
2018-12-08T02:11:56.446Z,0
2018-12-08T02:12:56.729Z,0
2018-12-08T02:13:56.515Z,0
2018-12-08T02:14:56.394Z,0
2018-12-08T02:15:56.162Z,0
2018-12-08T02:16:56.483Z,0
2018-12-08T02:17:56.346Z,0
2018-12-08T02:18:56.083Z,0
2018-12-08T02:19:56.426Z,0
2018-12-08T02:20:56.300Z,0
2018-12-08T02:21:56.305Z,0
2018-12-08T02:22:55.776Z,0
2018-12-08T02:23:56.010Z,0
2018-12-08T02:24:55.992Z,0
2018-12-08T02:25:56.222Z,0
2018-12-08T02:26:55.957Z,0
2018-12-08T02:27:56.196Z,0
2018-12-08T02:28:55.673Z,0
2018-12-08T02:29:56.162Z,0
2018-12-08T02:30:56.140Z,0
2018-12-08T02:31:55.881Z,0
2018-12-08T02:32:56.119Z,0
2018-12-08T02:33:56.101Z,0
2018-12-08T02:34:56.088Z,0
2018-12-08T02:35:55.827Z,0
2018-12-08T02:36:55.801Z,0
2018-12-08T02:37:55.801Z,0
2018-12-08T02:38:56.033Z,0
2018-12-08T02:39:55.766Z,0
2018-12-08T02:40:55.984Z,0
2018-12-08T02:41:55.979Z,0
2018-12-08T02:42:55.955Z,0
2018-12-08T02:43:55.939Z,0
2018-12-08T02:44:55.672Z,0
2018-12-08T02:45:55.922Z,0
2018-12-08T02:46:55.966Z,0
2018-12-08T02:47:55.882Z,0
2018-12-08T02:48:55.858Z,0
2018-12-08T02:49:55.593Z,0
2018-12-08T02:50:55.839Z,0
2018-12-08T02:51:55.840Z,0
2018-12-08T02:52:55.545Z,0
2018-12-08T02:53:55.784Z,0
2018-12-08T02:54:55.775Z,0
2018-12-08T02:55:55.259Z,0
2018-12-08T02:56:55.481Z,0
2018-12-08T02:57:55.719Z,0
2018-12-08T02:58:55.687Z,0
2018-12-08T02:59:55.700Z,0
2018-12-08T03:00:55.423Z,0
2018-12-08T03:01:55.658Z,0
2018-12-08T03:02:55.675Z,0
2018-12-08T03:03:55.617Z,0
2018-12-08T03:04:55.604Z,0
2018-12-08T03:05:55.578Z,0
2018-12-08T03:06:55.569Z,0
2018-12-08T03:07:55.066Z,0
2018-12-08T03:08:55.630Z,0
2018-12-08T03:09:55.022Z,0
2018-12-08T03:10:55.508Z,0
2018-12-08T03:11:55.592Z,0
2018-12-08T03:12:55.471Z,0
2018-12-08T03:13:55.456Z,0
2018-12-08T03:14:55.448Z,0
2018-12-08T03:15:55.420Z,0
2018-12-08T03:16:55.173Z,0
2018-12-08T03:17:55.148Z,0
2018-12-08T03:18:55.130Z,0
2018-12-08T03:19:55.379Z,0
2018-12-08T03:20:55.091Z,0
2018-12-08T03:21:55.335Z,0
2018-12-08T03:22:55.317Z,0
2018-12-08T03:23:55.079Z,0
2018-12-08T03:24:55.124Z,0
2018-12-08T03:25:55.265Z,0
2018-12-08T03:26:54.998Z,0
2018-12-08T03:27:54.986Z,0
2018-12-08T03:28:55.219Z,0
2018-12-08T03:29:55.205Z,0
2018-12-08T03:30:55.218Z,0
2018-12-08T03:31:54.937Z,0
2018-12-08T03:32:55.182Z,0
2018-12-08T03:33:54.897Z,0
2018-12-08T03:34:55.142Z,0
2018-12-08T03:35:55.109Z,0
2018-12-08T03:36:54.836Z,0
2018-12-08T03:37:55.090Z,0
2018-12-08T03:38:54.819Z,0
2018-12-08T03:39:55.043Z,0
2018-12-08T03:40:55.078Z,0
2018-12-08T03:41:54.519Z,0
2018-12-08T03:42:54.993Z,0
2018-12-08T03:43:54.745Z,0
2018-12-08T03:44:54.968Z,0
2018-12-08T03:45:54.708Z,0
2018-12-08T03:46:54.928Z,0
2018-12-08T03:47:54.926Z,0
2018-12-08T03:48:54.660Z,0
2018-12-08T03:49:54.885Z,0
2018-12-08T03:50:54.876Z,0
2018-12-08T03:51:54.604Z,0
2018-12-08T03:52:54.593Z,0
2018-12-08T03:53:55.077Z,0
2018-12-08T03:54:54.558Z,0
2018-12-08T03:55:54.292Z,0
2018-12-08T03:56:54.529Z,0
2018-12-08T03:57:54.775Z,0
2018-12-08T03:58:54.750Z,0
2018-12-08T03:59:54.491Z,0
2018-12-08T04:00:54.852Z,0
2018-12-08T04:01:54.472Z,0
2018-12-08T04:02:54.811Z,0
2018-12-08T04:03:54.671Z,0
2018-12-08T04:04:54.653Z,0
2018-12-08T04:05:54.401Z,0
2018-12-08T04:06:54.623Z,0
2018-12-08T04:07:54.605Z,0
2018-12-08T04:08:54.337Z,0
2018-12-08T04:09:54.348Z,0
2018-12-08T04:10:54.322Z,0
2018-12-08T04:11:54.301Z,0
2018-12-08T04:12:54.537Z,0
2018-12-08T04:13:54.522Z,0
2018-12-08T04:14:54.546Z,0
2018-12-08T04:15:54.566Z,0
2018-12-08T04:16:54.277Z,0
2018-12-08T04:17:54.471Z,0
2018-12-08T04:18:54.422Z,0
2018-12-08T04:19:54.413Z,0
2018-12-08T04:20:54.388Z,0
2018-12-08T04:21:54.223Z,0
2018-12-08T04:22:54.357Z,0
2018-12-08T04:23:54.548Z,0
2018-12-08T04:24:54.340Z,0
2018-12-08T04:25:54.134Z,0
2018-12-08T04:26:54.301Z,0
2018-12-08T04:27:54.279Z,0
2018-12-08T04:28:54.263Z,0
2018-12-08T04:29:54.259Z,0
2018-12-08T04:30:54.229Z,0
2018-12-08T04:31:54.223Z,0
2018-12-08T04:32:53.705Z,0
2018-12-08T04:33:53.948Z,0
2018-12-08T04:34:54.166Z,0
2018-12-08T04:35:54.714Z,0
2018-12-08T04:36:54.195Z,0
2018-12-08T04:37:54.118Z,0
2018-12-08T04:38:54.106Z,0
2018-12-08T04:39:54.090Z,0
2018-12-08T04:40:53.842Z,0
2018-12-08T04:41:54.053Z,0
2018-12-08T04:42:53.792Z,0
2018-12-08T04:43:53.782Z,0
2018-12-08T04:44:53.755Z,0
2018-12-08T04:45:53.741Z,0
2018-12-08T04:46:53.723Z,0
2018-12-08T04:47:53.708Z,0
2018-12-08T04:48:53.954Z,0
2018-12-08T04:49:53.930Z,0
2018-12-08T04:50:53.990Z,0
2018-12-08T04:51:53.902Z,0
2018-12-08T04:52:53.932Z,0
2018-12-08T04:53:53.865Z,0
2018-12-08T04:54:53.842Z,0
2018-12-08T04:55:53.613Z,0
2018-12-08T04:56:53.636Z,0
2018-12-08T04:57:53.792Z,0
2018-12-08T04:58:53.782Z,0
2018-12-08T04:59:53.774Z,0
2018-12-08T05:00:53.501Z,0
2018-12-08T05:01:53.730Z,0
2018-12-08T05:02:53.738Z,0
2018-12-08T05:03:53.717Z,0
2018-12-08T05:04:53.680Z,0
2018-12-08T05:05:53.691Z,0
2018-12-08T05:06:53.397Z,0
2018-12-08T05:07:53.625Z,0
2018-12-08T05:08:53.612Z,0
2018-12-08T05:09:53.355Z,0
2018-12-08T05:10:53.331Z,0
2018-12-08T05:11:53.561Z,0
2018-12-08T05:12:53.552Z,0
2018-12-08T05:13:53.288Z,0
2018-12-08T05:14:53.518Z,0
2018-12-08T05:15:53.498Z,0
2018-12-08T05:16:53.483Z,0
2018-12-08T05:17:53.463Z,0
2018-12-08T05:18:53.449Z,0
2018-12-08T05:19:53.341Z,0
2018-12-08T05:20:53.417Z,0
2018-12-08T05:21:53.401Z,0
2018-12-08T05:22:53.380Z,0
2018-12-08T05:23:53.117Z,0
2018-12-08T05:24:53.434Z,0
2018-12-08T05:25:53.338Z,0
2018-12-08T05:26:53.365Z,0
2018-12-08T05:27:52.805Z,0
2018-12-08T05:28:53.287Z,0
2018-12-08T05:29:53.265Z,0
2018-12-08T05:30:53.253Z,0
2018-12-08T05:31:53.237Z,0
2018-12-08T05:32:53.221Z,0
2018-12-08T05:33:53.268Z,0
2018-12-08T05:34:53.201Z,0
2018-12-08T05:35:53.174Z,0
2018-12-08T05:36:52.414Z,0
2018-12-08T05:37:53.140Z,0
2018-12-08T05:38:52.871Z,0
2018-12-08T05:39:53.116Z,0
2018-12-08T05:40:53.087Z,0
2018-12-08T05:41:52.828Z,0
2018-12-08T05:42:53.057Z,0
2018-12-08T05:43:53.040Z,0
2018-12-08T05:44:53.026Z,0
2018-12-08T05:45:53.036Z,0
2018-12-08T05:46:52.991Z,0
2018-12-08T05:47:52.728Z,0
2018-12-08T05:48:52.793Z,0
2018-12-08T05:49:52.946Z,0
2018-12-08T05:50:52.677Z,0
2018-12-08T05:51:52.667Z,0
2018-12-08T05:52:53.014Z,0
2018-12-08T05:53:52.876Z,0
2018-12-08T05:54:52.913Z,0
2018-12-08T05:55:52.843Z,0
2018-12-08T05:56:52.831Z,0
2018-12-08T05:57:52.562Z,0
2018-12-08T05:58:52.541Z,0
2018-12-08T05:59:52.533Z,0
2018-12-08T06:00:52.512Z,0
2018-12-08T06:01:52.830Z,0
2018-12-08T06:02:52.487Z,0
2018-12-08T06:03:52.711Z,0
2018-12-08T06:04:52.702Z,0
2018-12-08T06:05:52.676Z,0
2018-12-08T06:06:52.756Z,0
2018-12-08T06:07:52.645Z,0
2018-12-08T06:08:52.631Z,0
2018-12-08T06:09:52.371Z,0
2018-12-08T06:10:52.599Z,0
2018-12-08T06:11:52.576Z,0
2018-12-08T06:12:52.068Z,0
2018-12-08T06:13:52.555Z,0
2018-12-08T06:14:52.295Z,0
2018-12-08T06:15:52.519Z,0
2018-12-08T06:16:52.499Z,0
2018-12-08T06:17:52.231Z,0
2018-12-08T06:18:52.218Z,0
2018-12-08T06:19:52.201Z,0
2018-12-08T06:20:52.434Z,0
2018-12-08T06:21:52.176Z,0
2018-12-08T06:22:52.149Z,0
2018-12-08T06:23:52.381Z,0
2018-12-08T06:24:52.471Z,0
2018-12-08T06:25:52.351Z,0
2018-12-08T06:26:52.329Z,0
2018-12-08T06:27:52.315Z,0
2018-12-08T06:28:52.048Z,0
2018-12-08T06:29:52.276Z,0
2018-12-08T06:30:52.273Z,0
2018-12-08T06:31:51.999Z,0
2018-12-08T06:32:52.258Z,0
2018-12-08T06:33:52.212Z,0
2018-12-08T06:34:52.213Z,0
2018-12-08T06:35:51.936Z,0
2018-12-08T06:36:51.916Z,0
2018-12-08T06:37:52.164Z,0
2018-12-08T06:38:51.896Z,0
2018-12-08T06:39:51.866Z,0
2018-12-08T06:40:51.845Z,0
2018-12-08T06:41:52.079Z,0
2018-12-08T06:42:51.827Z,0
2018-12-08T06:43:52.047Z,0
2018-12-08T06:44:52.034Z,0
2018-12-08T06:45:52.030Z,0
2018-12-08T06:46:51.752Z,0
2018-12-08T06:47:51.980Z,0
2018-12-08T06:48:51.468Z,0
2018-12-08T06:49:51.702Z,0
2018-12-08T06:50:51.933Z,0
2018-12-08T06:51:51.916Z,0
2018-12-08T06:52:51.894Z,0
2018-12-08T06:53:51.895Z,0
2018-12-08T06:54:51.867Z,0
2018-12-08T06:55:51.847Z,0
2018-12-08T06:56:51.836Z,0
2018-12-08T06:57:51.816Z,0
2018-12-08T06:58:51.547Z,5
2018-12-08T06:59:51.533Z,5
2018-12-08T07:00:51.768Z,0
2018-12-08T07:01:51.748Z,0
2018-12-08T07:02:51.736Z,5
2018-12-08T07:03:51.716Z,5
2018-12-08T07:04:51.702Z,5
2018-12-08T07:05:51.683Z,5
2018-12-08T07:06:51.414Z,5
2018-12-08T07:07:51.659Z,5
2018-12-08T07:08:51.632Z,5
2018-12-08T07:09:51.623Z,10
2018-12-08T07:10:51.604Z,10
2018-12-08T07:11:51.585Z,10
2018-12-08T07:12:51.317Z,10
2018-12-08T07:13:51.552Z,10
2018-12-08T07:14:51.528Z,10
2018-12-08T07:15:51.518Z,15
2018-12-08T07:16:51.498Z,15
2018-12-08T07:17:51.481Z,15
2018-12-08T07:18:51.481Z,20
2018-12-08T07:19:51.210Z,20
2018-12-08T07:20:51.438Z,20
2018-12-08T07:21:51.419Z,20
2018-12-08T07:22:51.411Z,20
2018-12-08T07:23:51.137Z,20
2018-12-08T07:24:51.117Z,20
2018-12-08T07:25:51.355Z,20
2018-12-08T07:26:51.082Z,35
2018-12-08T07:27:51.069Z,35
2018-12-08T07:28:51.060Z,35
2018-12-08T07:29:51.302Z,30
2018-12-08T07:30:51.269Z,25
2018-12-08T07:31:51.254Z,25
2018-12-08T07:32:51.235Z,25
2018-12-08T07:33:51.220Z,30
2018-12-08T07:34:51.203Z,35
2018-12-08T07:35:51.187Z,35
2018-12-08T07:36:51.170Z,40
2018-12-08T07:37:51.154Z,40
2018-12-08T07:38:51.133Z,35
2018-12-08T07:39:50.928Z,40
2018-12-08T07:40:50.861Z,40
2018-12-08T07:41:50.591Z,40
2018-12-08T07:42:50.667Z,40
2018-12-08T07:43:51.057Z,35
2018-12-08T07:44:50.794Z,40
2018-12-08T07:45:50.784Z,40
2018-12-08T07:46:50.769Z,40
2018-12-08T07:47:50.996Z,40
2018-12-08T07:48:50.734Z,45
2018-12-08T07:49:50.469Z,50
2018-12-08T07:50:50.700Z,40
2018-12-08T07:51:50.928Z,55
2018-12-08T07:52:50.907Z,40
2018-12-08T07:53:50.898Z,40
2018-12-08T07:54:50.627Z,40
2018-12-08T07:55:50.612Z,40
2018-12-08T07:56:50.847Z,35
2018-12-08T07:57:50.829Z,30
2018-12-08T07:58:50.811Z,35
2018-12-08T07:59:50.794Z,35
2018-12-08T08:00:50.782Z,45
2018-12-08T08:01:50.763Z,35
2018-12-08T08:02:50.753Z,40
2018-12-08T08:03:50.728Z,30
2018-12-08T08:04:50.714Z,30
2018-12-08T08:05:50.471Z,30
2018-12-08T08:06:50.436Z,30
2018-12-08T08:07:50.670Z,35
2018-12-08T08:08:50.687Z,35
2018-12-08T08:09:50.448Z,35
2018-12-08T08:10:50.400Z,40
2018-12-08T08:11:50.390Z,40
2018-12-08T08:12:50.587Z,55
2018-12-08T08:13:50.569Z,60
2018-12-08T08:14:50.311Z,55
2018-12-08T08:15:50.307Z,55
2018-12-08T08:16:50.529Z,50
2018-12-08T08:17:50.521Z,55
2018-12-08T08:18:50.506Z,50
2018-12-08T08:19:50.245Z,35
2018-12-08T08:20:50.471Z,45
2018-12-08T08:21:50.459Z,35
2018-12-08T08:22:50.439Z,45
2018-12-08T08:23:50.163Z,55
2018-12-08T08:24:50.400Z,60
2018-12-08T08:25:50.393Z,50
2018-12-08T08:26:50.366Z,60
2018-12-08T08:27:50.369Z,60
2018-12-08T08:28:50.345Z,50
2018-12-08T08:29:50.135Z,70
2018-12-08T08:30:50.385Z,70
2018-12-08T08:31:51.152Z,45
2018-12-08T08:32:50.293Z,40
2018-12-08T08:33:50.248Z,55
2018-12-08T08:34:50.233Z,55
2018-12-08T08:35:50.224Z,80
2018-12-08T08:36:49.956Z,95
2018-12-08T08:37:49.944Z,85
2018-12-08T08:38:50.174Z,80
2018-12-08T08:39:50.164Z,60
2018-12-08T08:40:50.137Z,80
2018-12-08T08:41:50.129Z,65
2018-12-08T08:42:50.119Z,65
2018-12-08T08:43:50.092Z,75
2018-12-08T08:44:50.150Z,75
2018-12-08T08:45:50.067Z,70
2018-12-08T08:46:50.150Z,80
2018-12-08T08:47:49.778Z,90
2018-12-08T08:48:50.133Z,75
2018-12-08T08:49:49.746Z,75
2018-12-08T08:50:49.735Z,85
2018-12-08T08:51:49.985Z,80
2018-12-08T08:52:50.018Z,105
2018-12-08T08:53:49.686Z,80
2018-12-08T08:54:49.920Z,85
2018-12-08T08:55:49.913Z,100
2018-12-08T08:56:49.912Z,90
2018-12-08T08:57:49.902Z,80
2018-12-08T08:58:49.913Z,70
2018-12-08T08:59:49.897Z,85
2018-12-08T09:00:49.849Z,65
2018-12-08T09:01:49.873Z,80
2018-12-08T09:02:49.847Z,75
2018-12-08T09:03:49.827Z,70
2018-12-08T09:04:49.809Z,80
2018-12-08T09:05:49.534Z,80
2018-12-08T09:06:49.666Z,80
2018-12-08T09:07:49.749Z,100
2018-12-08T09:08:49.450Z,105
2018-12-08T09:09:49.716Z,115
2018-12-08T09:10:49.695Z,90
2018-12-08T09:11:49.408Z,110
2018-12-08T09:12:49.417Z,105
2018-12-08T09:13:49.645Z,90
2018-12-08T09:14:49.637Z,80
2018-12-08T09:15:49.920Z,75
2018-12-08T09:16:49.606Z,95
2018-12-08T09:17:49.561Z,100
2018-12-08T09:18:49.540Z,105
2018-12-08T09:19:49.531Z,100
2018-12-08T09:20:49.510Z,100
2018-12-08T09:21:49.306Z,90
2018-12-08T09:22:49.490Z,70
2018-12-08T09:23:49.468Z,70
2018-12-08T09:24:49.484Z,65
2018-12-08T09:25:49.498Z,80
2018-12-08T09:26:49.211Z,85
2018-12-08T09:27:49.339Z,80
2018-12-08T09:28:49.443Z,75
2018-12-08T09:29:48.881Z,70
2018-12-08T09:30:49.432Z,85
2018-12-08T09:31:49.118Z,85
2018-12-08T09:32:49.386Z,100
2018-12-08T09:33:48.817Z,85
2018-12-08T09:34:49.347Z,85
2018-12-08T09:35:49.331Z,85
2018-12-08T09:36:49.424Z,85
2018-12-08T09:37:48.752Z,85
2018-12-08T09:38:49.273Z,65
2018-12-08T09:39:49.120Z,75
2018-12-08T09:40:49.235Z,110
2018-12-08T09:41:49.470Z,85
2018-12-08T09:42:48.926Z,85
2018-12-08T09:43:48.915Z,110
2018-12-08T09:44:49.176Z,125
2018-12-08T09:45:51.585Z,115
2018-12-08T09:46:49.116Z,110
2018-12-08T09:47:49.097Z,105
2018-12-08T09:48:48.834Z,90
2018-12-08T09:49:48.823Z,70
2018-12-08T09:50:49.050Z,85
2018-12-08T09:51:49.038Z,70
2018-12-08T09:52:48.788Z,75
2018-12-08T09:53:49.004Z,75
2018-12-08T09:54:49.935Z,100
2018-12-08T09:55:48.733Z,105
2018-12-08T09:56:48.958Z,115
2018-12-08T09:57:48.950Z,130
2018-12-08T09:58:48.692Z,140
2018-12-08T09:59:48.912Z,170
2018-12-08T10:00:48.903Z,165
2018-12-08T10:01:48.883Z,130
2018-12-08T10:02:49.082Z,115
2018-12-08T10:03:48.605Z,120
2018-12-08T10:04:48.835Z,95
2018-12-08T10:05:48.817Z,105
2018-12-08T10:06:48.809Z,65
2018-12-08T10:07:48.800Z,70
2018-12-08T10:08:48.775Z,65
2018-12-08T10:09:48.762Z,50
2018-12-08T10:10:48.745Z,65
2018-12-08T10:11:48.835Z,55
2018-12-08T10:12:48.486Z,55
2018-12-08T10:13:48.454Z,55
2018-12-08T10:14:48.443Z,50
2018-12-08T10:15:48.667Z,70
2018-12-08T10:16:48.653Z,65
2018-12-08T10:17:48.393Z,65
2018-12-08T10:18:48.631Z,55
2018-12-08T10:19:48.370Z,75
2018-12-08T10:20:48.657Z,80
2018-12-08T10:21:48.333Z,75
2018-12-08T10:22:48.574Z,90
2018-12-08T10:23:48.309Z,90
2018-12-08T10:24:48.532Z,100
2018-12-08T10:25:48.514Z,65
2018-12-08T10:26:48.523Z,85
2018-12-08T10:27:49.911Z,75
2018-12-08T10:28:48.470Z,80
2018-12-08T10:29:48.460Z,90
2018-12-08T10:30:48.441Z,90
2018-12-08T10:31:48.426Z,85
2018-12-08T10:32:48.659Z,115
2018-12-08T10:33:48.248Z,115
2018-12-08T10:34:48.374Z,115
2018-12-08T10:35:48.111Z,125
2018-12-08T10:36:48.347Z,115
2018-12-08T10:37:48.088Z,110
2018-12-08T10:38:48.065Z,95
2018-12-08T10:39:49.453Z,85
2018-12-08T10:40:48.286Z,140
2018-12-08T10:41:48.269Z,115
2018-12-08T10:42:48.251Z,85
2018-12-08T10:43:48.234Z,100
2018-12-08T10:44:47.971Z,80
2018-12-08T10:45:47.955Z,105
2018-12-08T10:46:48.201Z,110
2018-12-08T10:47:48.174Z,120
2018-12-08T10:48:48.481Z,95
2018-12-08T10:49:48.144Z,115
2018-12-08T10:50:48.207Z,110
2018-12-08T10:51:48.128Z,105
2018-12-08T10:52:48.104Z,110
2018-12-08T10:53:48.080Z,100
2018-12-08T10:54:48.077Z,70
2018-12-08T10:55:48.055Z,75
2018-12-08T10:56:48.039Z,95
2018-12-08T10:57:47.524Z,90
2018-12-08T10:58:48.006Z,90
2018-12-08T10:59:47.991Z,75
2018-12-08T11:00:47.992Z,90
2018-12-08T11:01:47.973Z,85
2018-12-08T11:02:47.948Z,65
2018-12-08T11:03:48.043Z,70
2018-12-08T11:04:47.913Z,70
2018-12-08T11:05:47.905Z,80
2018-12-08T11:06:47.887Z,70
2018-12-08T11:07:47.867Z,85
2018-12-08T11:08:47.856Z,75
2018-12-08T11:09:47.589Z,70
2018-12-08T11:10:47.327Z,95
2018-12-08T11:11:47.568Z,85
2018-12-08T11:12:47.556Z,80
2018-12-08T11:13:47.785Z,105
2018-12-08T11:14:47.510Z,100
2018-12-08T11:15:47.746Z,85
2018-12-08T11:16:47.731Z,65
2018-12-08T11:17:47.966Z,75
2018-12-08T11:18:47.210Z,80
2018-12-08T11:19:47.190Z,95
2018-12-08T11:20:47.672Z,80
2018-12-08T11:21:47.658Z,80
2018-12-08T11:22:47.388Z,95
2018-12-08T11:23:48.003Z,80
2018-12-08T11:24:47.608Z,105
2018-12-08T11:25:47.590Z,90
2018-12-08T11:26:47.574Z,105
2018-12-08T11:27:47.408Z,90
2018-12-08T11:28:47.297Z,115
2018-12-08T11:29:47.532Z,110
2018-12-08T11:30:47.513Z,120
2018-12-08T11:31:47.508Z,110
2018-12-08T11:32:47.239Z,120
2018-12-08T11:33:47.217Z,100
2018-12-08T11:34:47.211Z,130
2018-12-08T11:35:47.439Z,110
2018-12-08T11:36:54.454Z,130
2018-12-08T11:37:47.163Z,130
2018-12-08T11:38:47.394Z,150
2018-12-08T11:39:47.383Z,185
2018-12-08T11:40:46.870Z,195
2018-12-08T11:41:47.103Z,160
2018-12-08T11:42:47.331Z,150
2018-12-08T11:43:47.427Z,160
2018-12-08T11:44:47.307Z,175
2018-12-08T11:45:47.044Z,180
2018-12-08T11:46:47.032Z,185
2018-12-08T11:47:47.260Z,165
2018-12-08T11:48:46.777Z,145
2018-12-08T11:49:47.954Z,140
2018-12-08T11:50:46.963Z,100
2018-12-08T11:51:47.206Z,85
2018-12-08T11:52:47.280Z,95
2018-12-08T11:53:46.922Z,125
2018-12-08T11:54:47.159Z,135
2018-12-08T11:55:46.890Z,115
2018-12-08T11:56:47.124Z,115
2018-12-08T11:57:46.861Z,115
2018-12-08T11:58:46.859Z,100
2018-12-08T11:59:46.839Z,85
2018-12-08T12:00:46.868Z,85
2018-12-08T12:01:47.071Z,80
2018-12-08T12:02:47.035Z,70
2018-12-08T12:03:47.029Z,65
2018-12-08T12:04:46.995Z,70
2018-12-08T12:05:46.998Z,85
2018-12-08T12:06:46.966Z,115
2018-12-08T12:07:46.457Z,125
2018-12-08T12:08:46.725Z,120
2018-12-08T12:09:47.014Z,135
2018-12-08T12:10:46.908Z,90
2018-12-08T12:11:46.641Z,75
2018-12-08T12:12:46.877Z,60
2018-12-08T12:13:46.624Z,70
2018-12-08T12:14:46.601Z,90
2018-12-08T12:15:46.338Z,80
2018-12-08T12:16:46.581Z,90
2018-12-08T12:17:46.804Z,75
2018-12-08T12:18:46.288Z,75
2018-12-08T12:19:46.771Z,80
2018-12-08T12:20:46.769Z,125
2018-12-08T12:21:46.491Z,110
2018-12-08T12:22:46.481Z,70
2018-12-08T12:23:46.724Z,65
2018-12-08T12:24:46.527Z,60
2018-12-08T12:25:46.679Z,60
2018-12-08T12:26:46.661Z,60
2018-12-08T12:27:46.397Z,60
2018-12-08T12:28:46.627Z,60
2018-12-08T12:29:46.615Z,65
2018-12-08T12:30:46.616Z,65
2018-12-08T12:31:46.339Z,70
2018-12-08T12:32:46.330Z,70
2018-12-08T12:33:46.058Z,70
2018-12-08T12:34:46.296Z,65
2018-12-08T12:35:46.520Z,75
2018-12-08T12:36:46.263Z,70
2018-12-08T12:37:46.492Z,70
2018-12-08T12:38:46.226Z,65
2018-12-08T12:39:46.245Z,65
2018-12-08T12:40:46.449Z,60
2018-12-08T12:41:45.941Z,60
2018-12-08T12:42:46.415Z,60
2018-12-08T12:43:46.397Z,65
2018-12-08T12:44:46.377Z,70
2018-12-08T12:45:46.363Z,80
2018-12-08T12:46:46.106Z,80
2018-12-08T12:47:46.333Z,80
2018-12-08T12:48:46.077Z,85
2018-12-08T12:49:46.059Z,90
2018-12-08T12:50:46.285Z,90
2018-12-08T12:51:46.025Z,90
2018-12-08T12:52:46.257Z,95
2018-12-08T12:53:46.344Z,95
2018-12-08T12:54:45.974Z,95
2018-12-08T12:55:45.965Z,85
2018-12-08T12:56:45.944Z,90
2018-12-08T12:57:46.182Z,60
2018-12-08T12:58:46.161Z,55
2018-12-08T12:59:45.901Z,60
2018-12-08T13:00:46.130Z,60
2018-12-08T13:01:46.119Z,60
2018-12-08T13:02:46.099Z,65
2018-12-08T13:03:46.082Z,65
2018-12-08T13:04:46.163Z,60
2018-12-08T13:05:46.053Z,60
2018-12-08T13:06:46.038Z,55
2018-12-08T13:07:46.134Z,55
2018-12-08T13:08:45.806Z,55
2018-12-08T13:09:45.992Z,50
2018-12-08T13:10:45.976Z,50
2018-12-08T13:11:45.959Z,50
2018-12-08T13:12:45.941Z,50
2018-12-08T13:13:45.986Z,50
2018-12-08T13:14:45.920Z,50
2018-12-08T13:15:45.649Z,50
2018-12-08T13:16:45.881Z,55
2018-12-08T13:17:45.619Z,55
2018-12-08T13:18:45.596Z,55
2018-12-08T13:19:45.834Z,60
2018-12-08T13:20:45.815Z,55
2018-12-08T13:21:47.258Z,65
2018-12-08T13:22:45.783Z,65
2018-12-08T13:23:45.770Z,60
2018-12-08T13:24:45.758Z,65
2018-12-08T13:25:45.487Z,65
2018-12-08T13:26:45.724Z,65
2018-12-08T13:27:45.790Z,70
2018-12-08T13:28:45.442Z,70
2018-12-08T13:29:45.190Z,70
2018-12-08T13:30:45.412Z,70
2018-12-08T13:31:45.641Z,70
2018-12-08T13:32:45.373Z,70
2018-12-08T13:33:45.610Z,65
2018-12-08T13:34:45.348Z,65
2018-12-08T13:35:45.579Z,60
2018-12-08T13:36:45.565Z,60
2018-12-08T13:37:45.546Z,65
2018-12-08T13:38:45.525Z,65
2018-12-08T13:39:45.517Z,65
2018-12-08T13:40:45.248Z,60
2018-12-08T13:41:45.486Z,60
2018-12-08T13:42:45.471Z,55
2018-12-08T13:43:45.578Z,50
2018-12-08T13:44:45.652Z,50
2018-12-08T13:45:45.419Z,45
2018-12-08T13:46:45.161Z,45
2018-12-08T13:47:45.390Z,55
2018-12-08T13:48:45.130Z,55
2018-12-08T13:49:45.715Z,50
2018-12-08T13:50:45.101Z,45
2018-12-08T13:51:45.084Z,50
2018-12-08T13:52:45.319Z,50
2018-12-08T13:53:45.631Z,50
2018-12-08T13:54:46.391Z,50
2018-12-08T13:55:45.020Z,50
2018-12-08T13:56:45.265Z,45
2018-12-08T13:57:45.237Z,50
2018-12-08T13:58:45.215Z,45
2018-12-08T13:59:45.250Z,50
2018-12-08T14:00:44.943Z,50
2018-12-08T14:01:45.172Z,55
2018-12-08T14:02:45.154Z,50
2018-12-08T14:03:45.064Z,50
2018-12-08T14:04:44.876Z,50
2018-12-08T14:05:45.115Z,45
2018-12-08T14:06:45.103Z,45
2018-12-08T14:07:44.829Z,45
2018-12-08T14:08:45.061Z,40
2018-12-08T14:09:45.064Z,45
2018-12-08T14:10:45.027Z,40
2018-12-08T14:11:45.014Z,40
2018-12-08T14:12:44.999Z,30
2018-12-08T14:13:44.981Z,30
2018-12-08T14:14:44.966Z,20
2018-12-08T14:15:44.951Z,25
2018-12-08T14:16:44.690Z,20
2018-12-08T14:17:44.919Z,20
2018-12-08T14:18:44.907Z,25
2018-12-08T14:19:44.397Z,20
2018-12-08T14:20:44.875Z,20
2018-12-08T14:21:44.612Z,20
2018-12-08T14:22:44.839Z,15
2018-12-08T14:23:44.825Z,20
2018-12-08T14:24:44.811Z,15
2018-12-08T14:25:45.267Z,15
2018-12-08T14:26:44.528Z,20
2018-12-08T14:27:44.761Z,15